Briefing drone pour Saint-jorioz

Rechercher une autre localisation

Conditions de vol :


Nous sommes le : Lundi 19 octobre 2020
Il est 20:47 UTC (22:47 LT)

Lever de soleil : 05:31 UTC (07:31 LT)
Coucher de soleil : 17:08 UTC (19:08 LT)

Météo

L'essentiel des conditions de vol

VIGILANCE MÉTÉO FRANCE - Haute-Savoie (74)
Pas de vigilances particulieres
METAR de LFLP
LFLP 192030Z AUTO 04006KT CAVOK 06/05 Q1020

Date d'émission: 19/10/2020
Heure d'émission: 20:30 UTC
Vent: 040° pour 6 KT (11 km/h)
Visibilité horizontale: > 10 km
Plafond : Plafond et visibilité OK (CAVOK)
Température: 6 °C
Point de rosée: 5 °C
Humidité: 93%
Pression (QNH): 1020 hPa
TAF de LFLP
AMD LFLP 191904Z 1919/2015 CNL

Conditions prévues :

Heure d'émission : Bulletin éffectué le 19 à 19:00 UTC
Prévision : Valide du 19 a 19:00 UTC au 20 a 15:00 UTC
Nuages : à 0ft (0 m)
WEBCAM POUR SAINT-JORIOZ

Réglementation

Voler en sécurité

CARTES AERONAUTIQUE 1/500.000
CARTES VAC (LFLP)
SUP AIP




Chargement des AIP...
NOTAM (SAINT-JORIOZ + Terrain à proximité / FIR )




Chargement des NOTAMS...
CONTACT PREFECTURE 74


Avertissement : Les données mises à disposition sont indicatives. Oxygène Drone ne pourra être tenu responsable de dégâts causés aux biens et aux personnes.